sensor_id;sensor_type;location;lat;lon;timestamp;P1;durP1;ratioP1;P2;durP2;ratioP2
75071;SDS011;63651;55.728;38.022;2023-07-31T00:04:57;5.60;;;3.47;;
75071;SDS011;63651;55.728;38.022;2023-07-31T00:09:58;5.05;;;3.30;;
75071;SDS011;63651;55.728;38.022;2023-07-31T00:14:59;6.32;;;3.70;;
75071;SDS011;63651;55.728;38.022;2023-07-31T00:20:01;5.78;;;3.50;;
75071;SDS011;63651;55.728;38.022;2023-07-31T00:25:02;4.35;;;3.15;;
75071;SDS011;63651;55.728;38.022;2023-07-31T00:30:03;3.72;;;2.70;;
75071;SDS011;63651;55.728;38.022;2023-07-31T00:35:05;4.32;;;2.72;;
75071;SDS011;63651;55.728;38.022;2023-07-31T00:40:06;4.60;;;2.83;;
75071;SDS011;63651;55.728;38.022;2023-07-31T00:45:08;5.00;;;2.80;;
75071;SDS011;63651;55.728;38.022;2023-07-31T00:50:09;4.45;;;3.00;;
75071;SDS011;63651;55.728;38.022;2023-07-31T00:55:10;5.03;;;2.90;;
75071;SDS011;63651;55.728;38.022;2023-07-31T01:00:12;5.40;;;2.75;;
75071;SDS011;63651;55.728;38.022;2023-07-31T01:05:13;3.88;;;2.80;;
75071;SDS011;63651;55.728;38.022;2023-07-31T01:10:26;4.15;;;2.70;;
75071;SDS011;63651;55.728;38.022;2023-07-31T01:15:34;4.47;;;3.03;;
75071;SDS011;63651;55.728;38.022;2023-07-31T01:20:35;6.00;;;3.22;;
75071;SDS011;63651;55.728;38.022;2023-07-31T01:30:51;4.68;;;2.90;;
75071;SDS011;63651;55.728;38.022;2023-07-31T01:35:55;4.75;;;3.28;;
75071;SDS011;63651;55.728;38.022;2023-07-31T01:40:57;4.75;;;3.10;;
75071;SDS011;63651;55.728;38.022;2023-07-31T01:45:58;5.55;;;3.20;;
75071;SDS011;63651;55.728;38.022;2023-07-31T01:51:00;5.97;;;3.50;;
75071;SDS011;63651;55.728;38.022;2023-07-31T01:56:01;4.72;;;3.03;;
75071;SDS011;63651;55.728;38.022;2023-07-31T02:01:02;5.22;;;3.30;;
75071;SDS011;63651;55.728;38.022;2023-07-31T02:06:03;5.07;;;3.33;;
75071;SDS011;63651;55.728;38.022;2023-07-31T02:11:04;5.72;;;2.78;;
75071;SDS011;63651;55.728;38.022;2023-07-31T02:16:05;5.38;;;3.13;;
75071;SDS011;63651;55.728;38.022;2023-07-31T02:21:06;5.05;;;3.03;;
75071;SDS011;63651;55.728;38.022;2023-07-31T02:26:08;5.95;;;2.83;;
75071;SDS011;63651;55.728;38.022;2023-07-31T02:31:09;4.60;;;3.20;;
75071;SDS011;63651;55.728;38.022;2023-07-31T02:36:10;5.10;;;2.90;;
75071;SDS011;63651;55.728;38.022;2023-07-31T02:41:11;5.35;;;2.92;;
75071;SDS011;63651;55.728;38.022;2023-07-31T02:46:12;4.03;;;2.80;;
75071;SDS011;63651;55.728;38.022;2023-07-31T02:51:13;5.53;;;2.90;;
75071;SDS011;63651;55.728;38.022;2023-07-31T02:56:14;4.47;;;2.65;;
75071;SDS011;63651;55.728;38.022;2023-07-31T03:01:15;5.40;;;2.75;;
75071;SDS011;63651;55.728;38.022;2023-07-31T03:06:16;5.03;;;2.55;;
75071;SDS011;63651;55.728;38.022;2023-07-31T03:11:17;3.47;;;2.30;;
75071;SDS011;63651;55.728;38.022;2023-07-31T03:16:18;5.00;;;2.60;;
75071;SDS011;63651;55.728;38.022;2023-07-31T03:21:18;4.32;;;2.78;;
75071;SDS011;63651;55.728;38.022;2023-07-31T03:26:19;5.30;;;3.03;;
75071;SDS011;63651;55.728;38.022;2023-07-31T03:31:20;3.90;;;2.60;;
75071;SDS011;63651;55.728;38.022;2023-07-31T03:36:21;3.85;;;2.63;;
75071;SDS011;63651;55.728;38.022;2023-07-31T03:41:22;3.70;;;2.67;;
75071;SDS011;63651;55.728;38.022;2023-07-31T03:46:24;4.97;;;2.67;;
75071;SDS011;63651;55.728;38.022;2023-07-31T03:51:25;8.07;;;2.70;;
75071;SDS011;63651;55.728;38.022;2023-07-31T03:56:26;6.20;;;3.03;;
75071;SDS011;63651;55.728;38.022;2023-07-31T04:01:27;6.47;;;2.70;;
75071;SDS011;63651;55.728;38.022;2023-07-31T04:06:28;6.35;;;2.80;;
75071;SDS011;63651;55.728;38.022;2023-07-31T04:11:29;7.25;;;2.95;;
75071;SDS011;63651;55.728;38.022;2023-07-31T04:16:30;8.30;;;3.00;;
75071;SDS011;63651;55.728;38.022;2023-07-31T04:21:31;6.72;;;2.80;;
75071;SDS011;63651;55.728;38.022;2023-07-31T04:26:32;5.10;;;2.53;;
75071;SDS011;63651;55.728;38.022;2023-07-31T04:31:33;7.05;;;2.55;;
75071;SDS011;63651;55.728;38.022;2023-07-31T04:36:34;3.75;;;2.22;;
75071;SDS011;63651;55.728;38.022;2023-07-31T04:41:35;4.65;;;2.92;;
75071;SDS011;63651;55.728;38.022;2023-07-31T04:46:36;8.20;;;2.97;;
75071;SDS011;63651;55.728;38.022;2023-07-31T04:51:38;7.95;;;3.42;;
75071;SDS011;63651;55.728;38.022;2023-07-31T04:56:39;4.07;;;2.33;;
75071;SDS011;63651;55.728;38.022;2023-07-31T05:01:40;4.50;;;2.53;;
75071;SDS011;63651;55.728;38.022;2023-07-31T05:06:41;4.70;;;2.25;;
75071;SDS011;63651;55.728;38.022;2023-07-31T05:11:42;6.10;;;2.20;;
75071;SDS011;63651;55.728;38.022;2023-07-31T05:16:43;5.53;;;2.65;;
75071;SDS011;63651;55.728;38.022;2023-07-31T05:21:44;4.97;;;2.58;;
75071;SDS011;63651;55.728;38.022;2023-07-31T05:26:45;5.43;;;2.45;;
75071;SDS011;63651;55.728;38.022;2023-07-31T05:31:46;4.53;;;3.10;;
75071;SDS011;63651;55.728;38.022;2023-07-31T05:36:47;5.00;;;2.63;;
75071;SDS011;63651;55.728;38.022;2023-07-31T05:41:48;4.40;;;2.63;;
75071;SDS011;63651;55.728;38.022;2023-07-31T05:46:49;4.05;;;3.20;;
75071;SDS011;63651;55.728;38.022;2023-07-31T05:51:50;4.22;;;2.63;;
75071;SDS011;63651;55.728;38.022;2023-07-31T05:56:51;8.90;;;3.10;;
75071;SDS011;63651;55.728;38.022;2023-07-31T06:01:52;8.35;;;3.25;;
75071;SDS011;63651;55.728;38.022;2023-07-31T06:06:54;4.68;;;3.15;;
75071;SDS011;63651;55.728;38.022;2023-07-31T06:11:55;6.68;;;2.80;;
75071;SDS011;63651;55.728;38.022;2023-07-31T06:16:56;5.78;;;3.10;;
75071;SDS011;63651;55.728;38.022;2023-07-31T06:21:57;6.13;;;2.90;;
75071;SDS011;63651;55.728;38.022;2023-07-31T06:26:58;4.13;;;2.30;;
75071;SDS011;63651;55.728;38.022;2023-07-31T06:31:59;3.72;;;2.30;;
75071;SDS011;63651;55.728;38.022;2023-07-31T06:37:00;4.22;;;2.20;;
75071;SDS011;63651;55.728;38.022;2023-07-31T06:42:01;4.30;;;2.47;;
75071;SDS011;63651;55.728;38.022;2023-07-31T06:47:03;3.85;;;2.05;;
75071;SDS011;63651;55.728;38.022;2023-07-31T06:52:04;3.70;;;2.05;;
75071;SDS011;63651;55.728;38.022;2023-07-31T06:57:05;2.70;;;1.90;;
75071;SDS011;63651;55.728;38.022;2023-07-31T07:02:06;3.15;;;1.77;;
75071;SDS011;63651;55.728;38.022;2023-07-31T07:07:09;2.85;;;1.80;;
75071;SDS011;63651;55.728;38.022;2023-07-31T07:12:10;3.20;;;1.88;;
75071;SDS011;63651;55.728;38.022;2023-07-31T07:17:11;3.28;;;1.42;;
75071;SDS011;63651;55.728;38.022;2023-07-31T07:22:12;2.28;;;1.40;;
75071;SDS011;63651;55.728;38.022;2023-07-31T07:27:13;2.83;;;1.42;;
75071;SDS011;63651;55.728;38.022;2023-07-31T07:32:14;3.10;;;1.83;;
75071;SDS011;63651;55.728;38.022;2023-07-31T07:37:15;2.40;;;1.63;;
75071;SDS011;63651;55.728;38.022;2023-07-31T07:42:16;2.75;;;1.55;;
75071;SDS011;63651;55.728;38.022;2023-07-31T07:47:17;2.55;;;1.30;;
75071;SDS011;63651;55.728;38.022;2023-07-31T07:52:18;2.35;;;1.38;;
75071;SDS011;63651;55.728;38.022;2023-07-31T07:57:19;2.60;;;1.40;;
75071;SDS011;63651;55.728;38.022;2023-07-31T08:02:21;3.28;;;1.55;;
75071;SDS011;63651;55.728;38.022;2023-07-31T08:07:23;2.95;;;1.40;;
75071;SDS011;63651;55.728;38.022;2023-07-31T08:12:24;2.58;;;2.00;;
75071;SDS011;63651;55.728;38.022;2023-07-31T08:17:25;1.98;;;1.38;;
75071;SDS011;63651;55.728;38.022;2023-07-31T08:22:26;2.15;;;1.60;;
75071;SDS011;63651;55.728;38.022;2023-07-31T08:27:27;2.55;;;1.65;;
75071;SDS011;63651;55.728;38.022;2023-07-31T08:32:28;6.43;;;2.30;;
75071;SDS011;63651;55.728;38.022;2023-07-31T08:37:29;2.97;;;1.50;;
75071;SDS011;63651;55.728;38.022;2023-07-31T08:42:30;2.13;;;1.70;;
75071;SDS011;63651;55.728;38.022;2023-07-31T08:47:31;2.17;;;1.63;;
75071;SDS011;63651;55.728;38.022;2023-07-31T08:52:32;4.53;;;1.75;;
75071;SDS011;63651;55.728;38.022;2023-07-31T08:57:34;2.70;;;1.58;;
75071;SDS011;63651;55.728;38.022;2023-07-31T09:07:49;2.95;;;1.63;;
75071;SDS011;63651;55.728;38.022;2023-07-31T09:12:52;2.63;;;1.58;;
75071;SDS011;63651;55.728;38.022;2023-07-31T09:17:59;2.85;;;1.55;;
75071;SDS011;63651;55.728;38.022;2023-07-31T09:23:20;2.40;;;1.80;;
75071;SDS011;63651;55.728;38.022;2023-07-31T09:28:22;3.58;;;1.40;;
75071;SDS011;63651;55.728;38.022;2023-07-31T09:33:32;1.83;;;1.60;;
75071;SDS011;63651;55.728;38.022;2023-07-31T09:38:33;2.90;;;2.08;;
75071;SDS011;63651;55.728;38.022;2023-07-31T09:43:34;2.15;;;1.83;;
75071;SDS011;63651;55.728;38.022;2023-07-31T09:48:38;2.53;;;1.92;;
75071;SDS011;63651;55.728;38.022;2023-07-31T09:53:39;2.55;;;1.80;;
75071;SDS011;63651;55.728;38.022;2023-07-31T09:58:40;2.80;;;1.58;;
75071;SDS011;63651;55.728;38.022;2023-07-31T10:03:42;2.58;;;1.60;;
75071;SDS011;63651;55.728;38.022;2023-07-31T10:08:46;2.35;;;1.75;;
75071;SDS011;63651;55.728;38.022;2023-07-31T10:13:50;2.40;;;1.45;;
75071;SDS011;63651;55.728;38.022;2023-07-31T10:18:52;3.30;;;1.95;;
75071;SDS011;63651;55.728;38.022;2023-07-31T10:23:55;3.20;;;1.80;;
75071;SDS011;63651;55.728;38.022;2023-07-31T10:28:57;2.78;;;1.60;;
75071;SDS011;63651;55.728;38.022;2023-07-31T10:33:59;2.75;;;1.77;;
75071;SDS011;63651;55.728;38.022;2023-07-31T10:39:03;3.20;;;1.90;;
75071;SDS011;63651;55.728;38.022;2023-07-31T10:44:04;3.88;;;1.50;;
75071;SDS011;63651;55.728;38.022;2023-07-31T10:49:07;2.10;;;1.90;;
75071;SDS011;63651;55.728;38.022;2023-07-31T10:54:16;3.28;;;1.70;;
75071;SDS011;63651;55.728;38.022;2023-07-31T10:59:19;3.40;;;1.70;;
75071;SDS011;63651;55.728;38.022;2023-07-31T11:04:24;4.22;;;2.10;;
75071;SDS011;63651;55.728;38.022;2023-07-31T11:14:31;2.42;;;1.98;;
75071;SDS011;63651;55.728;38.022;2023-07-31T11:19:32;3.60;;;2.03;;
75071;SDS011;63651;55.728;38.022;2023-07-31T11:24:33;2.38;;;1.65;;
75071;SDS011;63651;55.728;38.022;2023-07-31T11:29:35;3.28;;;1.90;;
75071;SDS011;63651;55.728;38.022;2023-07-31T11:34:50;3.15;;;1.73;;
75071;SDS011;63651;55.728;38.022;2023-07-31T11:39:59;2.75;;;1.83;;
75071;SDS011;63651;55.728;38.022;2023-07-31T11:45:08;1.73;;;1.58;;
75071;SDS011;63651;55.728;38.022;2023-07-31T11:50:12;2.60;;;2.10;;
75071;SDS011;63651;55.728;38.022;2023-07-31T11:55:13;3.22;;;2.10;;
75071;SDS011;63651;55.728;38.022;2023-07-31T12:00:16;2.35;;;1.92;;
75071;SDS011;63651;55.728;38.022;2023-07-31T12:05:18;2.80;;;2.30;;
75071;SDS011;63651;55.728;38.022;2023-07-31T12:10:37;9.93;;;3.63;;
75071;SDS011;63651;55.728;38.022;2023-07-31T12:15:41;18.23;;;5.00;;
75071;SDS011;63651;55.728;38.022;2023-07-31T12:21:17;10.32;;;5.40;;
75071;SDS011;63651;55.728;38.022;2023-07-31T12:26:13;11.95;;;4.90;;
75071;SDS011;63651;55.728;38.022;2023-07-31T12:31:20;9.75;;;4.32;;
75071;SDS011;63651;55.728;38.022;2023-07-31T12:36:23;8.05;;;3.97;;
75071;SDS011;63651;55.728;38.022;2023-07-31T12:41:26;9.13;;;4.10;;
75071;SDS011;63651;55.728;38.022;2023-07-31T12:46:27;6.15;;;3.65;;
75071;SDS011;63651;55.728;38.022;2023-07-31T12:51:28;7.05;;;3.30;;
75071;SDS011;63651;55.728;38.022;2023-07-31T12:56:29;7.43;;;3.30;;
75071;SDS011;63651;55.728;38.022;2023-07-31T13:01:30;3.78;;;2.90;;
75071;SDS011;63651;55.728;38.022;2023-07-31T13:06:31;5.95;;;2.90;;
75071;SDS011;63651;55.728;38.022;2023-07-31T13:11:32;3.20;;;2.38;;
75071;SDS011;63651;55.728;38.022;2023-07-31T13:16:34;3.78;;;2.17;;
75071;SDS011;63651;55.728;38.022;2023-07-31T13:21:36;3.83;;;2.70;;
75071;SDS011;63651;55.728;38.022;2023-07-31T13:26:37;4.20;;;2.25;;
75071;SDS011;63651;55.728;38.022;2023-07-31T13:31:38;4.53;;;2.15;;
75071;SDS011;63651;55.728;38.022;2023-07-31T13:36:39;4.28;;;2.33;;
75071;SDS011;63651;55.728;38.022;2023-07-31T13:41:40;2.50;;;2.30;;
75071;SDS011;63651;55.728;38.022;2023-07-31T13:46:42;2.92;;;2.35;;
75071;SDS011;63651;55.728;38.022;2023-07-31T13:51:43;3.00;;;2.30;;
75071;SDS011;63651;55.728;38.022;2023-07-31T13:56:44;3.17;;;2.50;;
75071;SDS011;63651;55.728;38.022;2023-07-31T14:01:45;2.22;;;2.03;;
75071;SDS011;63651;55.728;38.022;2023-07-31T14:06:46;5.43;;;2.60;;
75071;SDS011;63651;55.728;38.022;2023-07-31T14:11:48;4.57;;;2.38;;
75071;SDS011;63651;55.728;38.022;2023-07-31T14:16:49;5.68;;;2.38;;
75071;SDS011;63651;55.728;38.022;2023-07-31T14:21:50;3.85;;;2.42;;
75071;SDS011;63651;55.728;38.022;2023-07-31T14:26:51;3.25;;;2.15;;
75071;SDS011;63651;55.728;38.022;2023-07-31T14:31:53;3.65;;;2.20;;
75071;SDS011;63651;55.728;38.022;2023-07-31T14:36:54;5.00;;;2.35;;
75071;SDS011;63651;55.728;38.022;2023-07-31T14:41:55;3.88;;;2.17;;
75071;SDS011;63651;55.728;38.022;2023-07-31T14:46:56;3.72;;;2.38;;
75071;SDS011;63651;55.728;38.022;2023-07-31T14:51:57;2.75;;;2.47;;
75071;SDS011;63651;55.728;38.022;2023-07-31T14:56:58;4.43;;;2.60;;
75071;SDS011;63651;55.728;38.022;2023-07-31T15:01:59;4.20;;;2.83;;
75071;SDS011;63651;55.728;38.022;2023-07-31T15:07:00;4.50;;;2.83;;
75071;SDS011;63651;55.728;38.022;2023-07-31T15:12:01;5.53;;;3.03;;
75071;SDS011;63651;55.728;38.022;2023-07-31T15:17:02;4.72;;;2.80;;
75071;SDS011;63651;55.728;38.022;2023-07-31T15:22:03;3.75;;;2.47;;
75071;SDS011;63651;55.728;38.022;2023-07-31T15:27:05;8.07;;;2.92;;
75071;SDS011;63651;55.728;38.022;2023-07-31T15:32:06;5.50;;;3.05;;
75071;SDS011;63651;55.728;38.022;2023-07-31T15:37:07;5.38;;;2.67;;
75071;SDS011;63651;55.728;38.022;2023-07-31T15:42:09;5.35;;;2.53;;
75071;SDS011;63651;55.728;38.022;2023-07-31T15:47:10;3.72;;;2.30;;
75071;SDS011;63651;55.728;38.022;2023-07-31T15:52:11;4.93;;;2.50;;
75071;SDS011;63651;55.728;38.022;2023-07-31T15:57:12;4.68;;;2.75;;
75071;SDS011;63651;55.728;38.022;2023-07-31T16:02:13;5.22;;;2.30;;
75071;SDS011;63651;55.728;38.022;2023-07-31T16:07:14;5.40;;;2.22;;
75071;SDS011;63651;55.728;38.022;2023-07-31T16:12:15;4.47;;;2.10;;
75071;SDS011;63651;55.728;38.022;2023-07-31T16:17:16;3.90;;;2.47;;
75071;SDS011;63651;55.728;38.022;2023-07-31T16:22:17;3.78;;;2.50;;
75071;SDS011;63651;55.728;38.022;2023-07-31T16:27:18;3.25;;;2.22;;
75071;SDS011;63651;55.728;38.022;2023-07-31T16:32:19;4.13;;;2.70;;
75071;SDS011;63651;55.728;38.022;2023-07-31T16:37:21;3.28;;;2.70;;
75071;SDS011;63651;55.728;38.022;2023-07-31T16:42:23;4.55;;;3.13;;
75071;SDS011;63651;55.728;38.022;2023-07-31T16:47:24;2.72;;;2.45;;
75071;SDS011;63651;55.728;38.022;2023-07-31T16:52:25;4.20;;;2.28;;
75071;SDS011;63651;55.728;38.022;2023-07-31T16:57:28;2.92;;;2.13;;
75071;SDS011;63651;55.728;38.022;2023-07-31T17:02:29;4.25;;;2.47;;
75071;SDS011;63651;55.728;38.022;2023-07-31T17:07:30;3.58;;;2.30;;
75071;SDS011;63651;55.728;38.022;2023-07-31T17:12:31;4.38;;;2.70;;
75071;SDS011;63651;55.728;38.022;2023-07-31T17:17:32;6.97;;;2.72;;
75071;SDS011;63651;55.728;38.022;2023-07-31T17:22:39;7.53;;;2.83;;
75071;SDS011;63651;55.728;38.022;2023-07-31T17:28:06;6.32;;;3.00;;
75071;SDS011;63651;55.728;38.022;2023-07-31T17:33:07;5.88;;;2.95;;
75071;SDS011;63651;55.728;38.022;2023-07-31T17:38:08;4.90;;;2.90;;
75071;SDS011;63651;55.728;38.022;2023-07-31T17:43:09;6.07;;;2.53;;
75071;SDS011;63651;55.728;38.022;2023-07-31T17:48:10;4.68;;;2.83;;
75071;SDS011;63651;55.728;38.022;2023-07-31T17:53:11;3.10;;;2.50;;
75071;SDS011;63651;55.728;38.022;2023-07-31T17:58:12;4.53;;;2.47;;
75071;SDS011;63651;55.728;38.022;2023-07-31T18:03:13;5.18;;;2.95;;
75071;SDS011;63651;55.728;38.022;2023-07-31T18:08:14;4.43;;;3.10;;
75071;SDS011;63651;55.728;38.022;2023-07-31T18:13:15;5.30;;;3.13;;
75071;SDS011;63651;55.728;38.022;2023-07-31T18:18:17;4.35;;;2.30;;
75071;SDS011;63651;55.728;38.022;2023-07-31T18:23:18;4.10;;;2.75;;
75071;SDS011;63651;55.728;38.022;2023-07-31T18:28:19;5.20;;;2.85;;
75071;SDS011;63651;55.728;38.022;2023-07-31T18:33:20;3.92;;;2.55;;
75071;SDS011;63651;55.728;38.022;2023-07-31T18:38:21;4.70;;;2.15;;
75071;SDS011;63651;55.728;38.022;2023-07-31T18:43:22;4.57;;;2.70;;
75071;SDS011;63651;55.728;38.022;2023-07-31T18:48:23;5.07;;;2.50;;
75071;SDS011;63651;55.728;38.022;2023-07-31T18:53:25;4.45;;;2.55;;
75071;SDS011;63651;55.728;38.022;2023-07-31T18:58:26;4.47;;;2.40;;
75071;SDS011;63651;55.728;38.022;2023-07-31T19:03:27;2.97;;;2.50;;
75071;SDS011;63651;55.728;38.022;2023-07-31T19:08:28;4.20;;;2.58;;
75071;SDS011;63651;55.728;38.022;2023-07-31T19:13:30;4.70;;;3.15;;
75071;SDS011;63651;55.728;38.022;2023-07-31T19:18:31;6.68;;;3.40;;
75071;SDS011;63651;55.728;38.022;2023-07-31T19:23:32;6.80;;;3.35;;
75071;SDS011;63651;55.728;38.022;2023-07-31T19:28:33;11.10;;;6.32;;
75071;SDS011;63651;55.728;38.022;2023-07-31T19:33:34;11.77;;;6.78;;
75071;SDS011;63651;55.728;38.022;2023-07-31T19:38:36;10.57;;;6.95;;
75071;SDS011;63651;55.728;38.022;2023-07-31T19:43:37;9.77;;;6.68;;
75071;SDS011;63651;55.728;38.022;2023-07-31T19:48:38;14.10;;;7.22;;
75071;SDS011;63651;55.728;38.022;2023-07-31T19:53:39;13.02;;;7.45;;
75071;SDS011;63651;55.728;38.022;2023-07-31T19:58:40;14.38;;;8.05;;
75071;SDS011;63651;55.728;38.022;2023-07-31T20:03:41;15.88;;;8.57;;
75071;SDS011;63651;55.728;38.022;2023-07-31T20:08:42;10.95;;;6.53;;
75071;SDS011;63651;55.728;38.022;2023-07-31T20:13:43;9.75;;;6.35;;
75071;SDS011;63651;55.728;38.022;2023-07-31T20:18:44;10.15;;;6.43;;
75071;SDS011;63651;55.728;38.022;2023-07-31T20:23:46;11.68;;;6.43;;
75071;SDS011;63651;55.728;38.022;2023-07-31T20:28:47;12.25;;;7.10;;
75071;SDS011;63651;55.728;38.022;2023-07-31T20:33:49;12.10;;;7.07;;
75071;SDS011;63651;55.728;38.022;2023-07-31T20:38:53;13.48;;;7.55;;
75071;SDS011;63651;55.728;38.022;2023-07-31T20:43:56;14.27;;;7.35;;
75071;SDS011;63651;55.728;38.022;2023-07-31T20:48:57;13.98;;;6.32;;
75071;SDS011;63651;55.728;38.022;2023-07-31T20:53:58;10.13;;;6.50;;
75071;SDS011;63651;55.728;38.022;2023-07-31T20:58:59;10.30;;;6.50;;
75071;SDS011;63651;55.728;38.022;2023-07-31T21:04:00;15.77;;;8.48;;
75071;SDS011;63651;55.728;38.022;2023-07-31T21:09:01;11.93;;;8.02;;
75071;SDS011;63651;55.728;38.022;2023-07-31T21:14:03;14.43;;;7.55;;
75071;SDS011;63651;55.728;38.022;2023-07-31T21:19:04;10.77;;;6.80;;
75071;SDS011;63651;55.728;38.022;2023-07-31T21:24:05;15.60;;;8.95;;
75071;SDS011;63651;55.728;38.022;2023-07-31T21:29:06;15.75;;;9.75;;
75071;SDS011;63651;55.728;38.022;2023-07-31T21:34:07;17.05;;;9.43;;
75071;SDS011;63651;55.728;38.022;2023-07-31T21:39:08;17.13;;;9.77;;
75071;SDS011;63651;55.728;38.022;2023-07-31T21:44:11;14.82;;;9.10;;
75071;SDS011;63651;55.728;38.022;2023-07-31T21:49:12;14.50;;;9.23;;
75071;SDS011;63651;55.728;38.022;2023-07-31T21:54:13;13.50;;;8.63;;
75071;SDS011;63651;55.728;38.022;2023-07-31T21:59:14;18.63;;;9.30;;
75071;SDS011;63651;55.728;38.022;2023-07-31T22:04:15;13.27;;;8.68;;
75071;SDS011;63651;55.728;38.022;2023-07-31T22:09:16;13.85;;;8.85;;
75071;SDS011;63651;55.728;38.022;2023-07-31T22:14:17;14.18;;;8.32;;
75071;SDS011;63651;55.728;38.022;2023-07-31T22:19:18;13.93;;;8.07;;
75071;SDS011;63651;55.728;38.022;2023-07-31T22:24:19;13.50;;;7.07;;
75071;SDS011;63651;55.728;38.022;2023-07-31T22:29:20;11.50;;;7.80;;
75071;SDS011;63651;55.728;38.022;2023-07-31T22:34:21;16.05;;;9.15;;
75071;SDS011;63651;55.728;38.022;2023-07-31T22:39:22;14.38;;;8.43;;
75071;SDS011;63651;55.728;38.022;2023-07-31T22:44:23;13.10;;;8.93;;
75071;SDS011;63651;55.728;38.022;2023-07-31T22:49:24;11.13;;;8.57;;
75071;SDS011;63651;55.728;38.022;2023-07-31T22:54:25;13.57;;;7.93;;
75071;SDS011;63651;55.728;38.022;2023-07-31T22:59:26;11.55;;;7.22;;
75071;SDS011;63651;55.728;38.022;2023-07-31T23:04:27;15.98;;;8.10;;
75071;SDS011;63651;55.728;38.022;2023-07-31T23:09:28;14.02;;;7.60;;
75071;SDS011;63651;55.728;38.022;2023-07-31T23:14:29;10.48;;;7.07;;
75071;SDS011;63651;55.728;38.022;2023-07-31T23:19:31;15.52;;;7.80;;
75071;SDS011;63651;55.728;38.022;2023-07-31T23:24:33;12.85;;;6.82;;
75071;SDS011;63651;55.728;38.022;2023-07-31T23:29:34;13.85;;;7.78;;
75071;SDS011;63651;55.728;38.022;2023-07-31T23:34:36;11.88;;;7.43;;
75071;SDS011;63651;55.728;38.022;2023-07-31T23:39:37;13.13;;;6.70;;
75071;SDS011;63651;55.728;38.022;2023-07-31T23:44:38;13.07;;;7.50;;
75071;SDS011;63651;55.728;38.022;2023-07-31T23:49:40;13.90;;;7.88;;
75071;SDS011;63651;55.728;38.022;2023-07-31T23:54:40;14.55;;;7.28;;
75071;SDS011;63651;55.728;38.022;2023-07-31T23:59:41;11.88;;;6.93;;
